Time;durP1;ratioP1;P1;durP2;ratioP2;P2;SDS_P1;SDS_P2;PMS_P1;PMS_P2;Temp;Humidity;BMP_temperature;BMP_pressure;BME280_temperature;BME280_humidity;BME280_pressure;Samples;Min_cycle;Max_cycle;Signal;HPM_P1;HPM_P2
2023/09/17 00:00:58;;;;;;;31.02;24.80;;;19.40;99.90;;;;;;5072865;28;20393;-69
2023/09/17 00:03:24;;;;;;;30.40;24.00;;;19.30;99.90;;;;;;5073636;28;20021;-69
2023/09/17 00:05:50;;;;;;;28.17;24.48;;;19.30;99.90;;;;;;5073914;28;20364;-69
2023/09/17 00:08:15;;;;;;;31.48;24.65;;;19.20;99.90;;;;;;5073569;28;20025;-70
2023/09/17 00:10:43;;;;;;;31.27;25.58;;;19.20;99.90;;;;;;5073655;28;20073;-69
2023/09/17 00:13:09;;;;;;;31.17;24.65;;;19.10;99.90;;;;;;5073476;28;20462;-70
2023/09/17 00:15:36;;;;;;;34.00;24.73;;;19.10;99.90;;;;;;5073397;28;20028;-70
2023/09/17 00:18:02;;;;;;;29.73;25.17;;;19.00;99.90;;;;;;5073468;28;20033;-69
2023/09/17 00:20:27;;;;;;;31.27;26.75;;;18.90;99.90;;;;;;5073605;28;20032;-72
2023/09/17 00:22:53;;;;;;;34.10;25.70;;;18.90;99.90;;;;;;5073357;28;20111;-69
2023/09/17 00:25:18;;;;;;;31.15;26.98;;;18.80;99.90;;;;;;5072982;28;20021;-69
2023/09/17 00:27:44;;;;;;;28.73;24.83;;;18.80;99.90;;;;;;5072389;28;20029;-69
2023/09/17 00:30:10;;;;;;;33.47;26.58;;;18.80;99.90;;;;;;5073225;28;20025;-70
2023/09/17 00:32:36;;;;;;;31.50;26.52;;;18.70;99.90;;;;;;5073078;28;20039;-69
2023/09/17 00:35:01;;;;;;;32.03;26.23;;;18.70;99.90;;;;;;5072618;28;20037;-70
2023/09/17 00:37:27;;;;;;;30.85;25.27;;;18.70;99.90;;;;;;5073511;28;20091;-69
2023/09/17 00:39:52;;;;;;;34.20;27.17;;;18.70;99.90;;;;;;5072932;28;20402;-70
2023/09/17 00:42:18;;;;;;;33.03;27.33;;;18.70;99.90;;;;;;5073482;28;20032;-69
2023/09/17 00:44:43;;;;;;;29.40;23.58;;;18.60;99.90;;;;;;5072621;28;20032;-69
2023/09/17 00:47:09;;;;;;;29.92;25.02;;;18.60;99.90;;;;;;5073396;28;20028;-69
2023/09/17 00:49:35;;;;;;;29.77;24.30;;;18.50;99.90;;;;;;5077007;28;20033;-70
2023/09/17 00:52:01;;;;;;;32.47;23.80;;;18.50;99.90;;;;;;5076637;28;20025;-69
2023/09/17 00:54:28;;;;;;;35.78;28.27;;;18.40;99.90;;;;;;5076381;28;20028;-69
2023/09/17 00:56:55;;;;;;;40.25;29.42;;;18.40;99.90;;;;;;5075756;28;20060;-69
2023/09/17 00:59:21;;;;;;;39.08;30.77;;;18.40;99.90;;;;;;5076709;28;20029;-69
2023/09/17 01:01:46;;;;;;;36.78;30.95;;;18.40;99.90;;;;;;5076551;28;20429;-70
2023/09/17 01:04:14;;;;;;;36.50;30.92;;;18.40;99.90;;;;;;5076617;28;20066;-70
2023/09/17 01:06:40;;;;;;;34.63;28.95;;;18.40;99.90;;;;;;5076127;28;20028;-69
2023/09/17 01:09:08;;;;;;;36.53;28.58;;;18.40;99.90;;;;;;5076415;28;20025;-69
2023/09/17 01:11:35;;;;;;;37.28;29.77;;;18.40;99.90;;;;;;5076677;28;20477;-69
2023/09/17 01:14:18;;;;;;;35.75;29.10;;;18.40;99.90;;;;;;5076631;28;20056;-69
2023/09/17 01:16:45;;;;;;;;;;;18.30;99.90;;;;;;5076780;28;20024;-69
2023/09/17 01:19:29;;;;;;;39.40;29.67;;;18.30;99.90;;;;;;5076386;28;19926;-69
2023/09/17 01:22:03;;;;;;;35.28;28.75;;;18.30;99.90;;;;;;5075400;28;20035;-69
2023/09/17 01:27:18;;;;;;;34.10;27.42;;;18.20;99.90;;;;;;5111972;27;20384;-69
2023/09/17 01:29:46;;;;;;;33.25;27.60;;;18.20;99.90;;;;;;5110871;28;20024;-71
2023/09/17 01:32:13;;;;;;;32.50;26.30;;;18.10;99.90;;;;;;5111757;28;20480;-68
2023/09/17 01:34:42;;;;;;;33.72;26.92;;;18.10;99.90;;;;;;5111689;28;20385;-69
2023/09/17 01:37:14;;;;;;;32.63;26.35;;;18.00;99.90;;;;;;5111631;28;20059;-69
2023/09/17 01:39:45;;;;;;;30.63;26.50;;;17.90;99.90;;;;;;5111274;28;20064;-68
2023/09/17 01:42:12;;;;;;;32.90;27.42;;;17.90;99.90;;;;;;5111632;28;20037;-69
2023/09/17 01:44:40;;;;;;;37.08;30.13;;;17.80;99.90;;;;;;5111475;28;20028;-69
2023/09/17 01:47:06;;;;;;;36.17;29.70;;;17.80;99.90;;;;;;5111485;28;20028;-69
2023/09/17 01:49:33;;;;;;;42.55;32.35;;;17.80;99.90;;;;;;5111499;28;20488;-69
2023/09/17 01:51:59;;;;;;;38.97;31.58;;;17.80;99.90;;;;;;5111393;28;20481;-69
2023/09/17 01:54:25;;;;;;;40.90;32.47;;;17.80;99.90;;;;;;5111353;28;20085;-69
2023/09/17 01:56:51;;;;;;;41.25;33.40;;;17.80;99.90;;;;;;5111343;28;20058;-69
2023/09/17 01:59:17;;;;;;;39.72;30.92;;;17.80;99.90;;;;;;5110982;28;20035;-69
2023/09/17 02:01:43;;;;;;;43.97;34.88;;;17.80;99.90;;;;;;5110363;28;20054;-69
2023/09/17 02:04:08;;;;;;;42.08;32.50;;;17.70;99.90;;;;;;5111391;28;20118;-69
2023/09/17 02:06:36;;;;;;;46.53;35.00;;;17.70;99.90;;;;;;5110954;28;20020;-68
2023/09/17 02:09:05;;;;;;;44.83;33.90;;;17.70;99.90;;;;;;5111028;28;20062;-69
2023/09/17 02:11:31;;;;;;;41.72;33.40;;;17.70;99.90;;;;;;5111291;28;20062;-69
2023/09/17 02:13:56;;;;;;;46.00;34.03;;;17.70;99.90;;;;;;5110327;28;20024;-69
2023/09/17 02:16:22;;;;;;;43.92;31.85;;;17.60;99.90;;;;;;5111121;28;20028;-69
2023/09/17 02:18:48;;;;;;;35.58;29.30;;;17.60;99.90;;;;;;5110836;28;20016;-69
2023/09/17 02:21:13;;;;;;;43.67;32.83;;;17.60;99.90;;;;;;5110181;28;20470;-69
2023/09/17 02:23:39;;;;;;;44.58;33.58;;;17.50;99.90;;;;;;5110119;28;20020;-69
2023/09/17 02:26:04;;;;;;;40.47;32.30;;;17.50;99.90;;;;;;5110018;28;20101;-69
2023/09/17 02:28:30;;;;;;;48.35;35.00;;;17.40;99.90;;;;;;5110103;28;20110;-69
2023/09/17 02:30:59;;;;;;;47.17;36.05;;;17.40;99.90;;;;;;5110541;28;20020;-70
2023/09/17 02:33:25;;;;;;;45.63;35.78;;;17.50;99.90;;;;;;5110872;28;20085;-70
2023/09/17 02:35:50;;;;;;;42.20;34.85;;;17.50;99.90;;;;;;5109978;28;20114;-70
2023/09/17 02:38:17;;;;;;;48.25;34.67;;;17.50;99.90;;;;;;5098390;28;20039;-70
2023/09/17 02:40:43;;;;;;;42.22;34.80;;;17.50;99.90;;;;;;5096719;28;20024;-70
2023/09/17 02:43:09;;;;;;;49.25;36.03;;;17.50;99.90;;;;;;5095866;28;20028;-70
2023/09/17 02:45:35;;;;;;;47.83;36.33;;;17.50;99.90;;;;;;5097044;28;20024;-69
2023/09/17 02:48:01;;;;;;;47.13;36.33;;;17.50;99.90;;;;;;5096310;28;20470;-69
2023/09/17 02:50:27;;;;;;;46.75;34.65;;;17.50;99.90;;;;;;5096972;28;20031;-69
2023/09/17 02:52:52;;;;;;;51.08;37.78;;;17.50;99.90;;;;;;5096782;28;20028;-69
2023/09/17 02:55:18;;;;;;;50.13;36.15;;;17.40;99.90;;;;;;5096853;28;20063;-69
2023/09/17 02:57:44;;;;;;;46.05;37.90;;;17.40;99.90;;;;;;5096133;28;20028;-69
2023/09/17 03:00:10;;;;;;;48.33;36.67;;;17.40;99.90;;;;;;5096316;28;20024;-69
2023/09/17 03:02:38;;;;;;;50.00;37.03;;;17.50;99.90;;;;;;5096669;28;20032;-69
2023/09/17 03:05:03;;;;;;;46.78;36.55;;;17.50;99.90;;;;;;5096356;28;20032;-69
2023/09/17 03:07:29;;;;;;;44.20;35.03;;;17.60;99.90;;;;;;5096464;28;20082;-72
2023/09/17 03:09:59;;;;;;;44.63;37.10;;;17.60;99.90;;;;;;5096235;28;20496;-69
2023/09/17 03:12:25;;;;;;;41.53;32.55;;;17.60;99.90;;;;;;5096435;28;20020;-69
2023/09/17 03:14:52;;;;;;;47.70;35.50;;;17.60;99.90;;;;;;5096501;28;20424;-69
2023/09/17 03:17:17;;;;;;;48.38;36.80;;;17.60;99.90;;;;;;5096054;28;20020;-69
2023/09/17 03:19:43;;;;;;;45.85;35.63;;;17.60;99.90;;;;;;5096094;28;20411;-69
2023/09/17 03:22:09;;;;;;;44.65;35.70;;;17.60;99.90;;;;;;5095790;28;20028;-69
2023/09/17 03:24:35;;;;;;;45.92;36.05;;;17.60;99.90;;;;;;5096021;28;20139;-69
2023/09/17 03:27:00;;;;;;;50.67;37.03;;;17.60;99.90;;;;;;5094969;28;20405;-69
2023/09/17 03:29:26;;;;;;;55.65;38.67;;;17.70;99.90;;;;;;5095900;28;20024;-69
2023/09/17 03:31:52;;;;;;;52.13;38.13;;;17.60;99.90;;;;;;5096213;28;20030;-69
2023/09/17 03:34:17;;;;;;;52.40;38.10;;;17.60;99.90;;;;;;5095551;28;20543;-69
2023/09/17 03:36:43;;;;;;;48.75;38.08;;;17.60;99.90;;;;;;5095780;28;20062;-69
2023/09/17 03:39:09;;;;;;;53.38;38.42;;;17.60;99.90;;;;;;5095992;28;20473;-69
2023/09/17 03:41:34;;;;;;;47.72;37.15;;;17.60;99.90;;;;;;5095690;28;20024;-69
2023/09/17 03:44:00;;;;;;;48.67;37.95;;;17.60;99.90;;;;;;5095962;28;20036;-69
2023/09/17 03:46:26;;;;;;;50.22;36.95;;;17.60;99.90;;;;;;5095345;28;20032;-69
2023/09/17 03:48:51;;;;;;;54.83;39.00;;;17.60;99.90;;;;;;5094360;28;20035;-69
2023/09/17 03:51:17;;;;;;;47.00;38.17;;;17.50;99.90;;;;;;5095528;28;20370;-69
2023/09/17 03:53:43;;;;;;;47.47;36.55;;;17.50;99.90;;;;;;5095457;28;20032;-71
2023/09/17 03:56:11;;;;;;;50.03;38.47;;;17.50;99.90;;;;;;5095338;28;20062;-69
2023/09/17 03:58:37;;;;;;;48.95;38.95;;;17.50;99.90;;;;;;5094978;28;20072;-69
2023/09/17 04:01:06;;;;;;;49.20;36.63;;;17.50;99.90;;;;;;5094819;28;20028;-69
2023/09/17 04:03:32;;;;;;;43.38;35.03;;;17.50;99.90;;;;;;5095314;28;20492;-69
2023/09/17 04:05:57;;;;;;;46.47;36.08;;;17.50;99.90;;;;;;5095269;28;20105;-69
2023/09/17 04:08:24;;;;;;;43.45;34.97;;;17.50;99.90;;;;;;5095077;28;20020;-69
2023/09/17 04:10:53;;;;;;;46.80;36.13;;;17.50;99.90;;;;;;5095133;28;20027;-69
2023/09/17 04:13:19;;;;;;;42.97;34.70;;;17.50;99.90;;;;;;5094771;28;20381;-69
2023/09/17 04:15:44;;;;;;;43.25;34.22;;;17.50;99.90;;;;;;5095038;28;20111;-69
2023/09/17 04:18:10;;;;;;;42.33;34.10;;;17.50;99.90;;;;;;5095194;28;20046;-69
2023/09/17 04:20:35;;;;;;;43.55;34.55;;;17.50;99.90;;;;;;5094531;28;20024;-69
2023/09/17 04:23:03;;;;;;;43.60;34.42;;;17.50;99.90;;;;;;5095119;28;20024;-69
2023/09/17 04:25:29;;;;;;;45.72;34.35;;;17.50;99.90;;;;;;5094190;28;20048;-69
2023/09/17 04:27:55;;;;;;;45.97;34.63;;;17.50;99.90;;;;;;5094459;28;20115;-69
2023/09/17 04:30:21;;;;;;;47.45;35.42;;;17.50;99.90;;;;;;5094363;28;20426;-70
2023/09/17 04:32:48;;;;;;;44.72;35.72;;;17.50;99.90;;;;;;5094606;28;20027;-69
2023/09/17 04:35:17;;;;;;;44.17;33.45;;;17.50;99.90;;;;;;5094986;28;20028;-69
2023/09/17 04:37:44;;;;;;;39.55;31.65;;;17.50;99.90;;;;;;5094718;28;20035;-69
2023/09/17 04:40:11;;;;;;;42.92;34.08;;;17.50;99.90;;;;;;5094489;28;20362;-69
2023/09/17 04:42:38;;;;;;;42.50;33.75;;;17.40;99.90;;;;;;5094292;28;20028;-69
2023/09/17 04:45:05;;;;;;;48.58;36.83;;;17.40;99.90;;;;;;5094345;28;20107;-69
2023/09/17 04:47:33;;;;;;;50.50;37.80;;;17.40;99.90;;;;;;5094088;28;20016;-69
2023/09/17 04:49:59;;;;;;;48.45;36.92;;;17.40;99.90;;;;;;5094134;28;20074;-69
2023/09/17 04:52:25;;;;;;;47.38;37.55;;;17.40;99.90;;;;;;5094405;28;20055;-69
2023/09/17 04:54:51;;;;;;;48.80;38.53;;;17.40;99.90;;;;;;5094057;28;20077;-69
2023/09/17 04:57:16;;;;;;;48.88;38.55;;;17.40;99.90;;;;;;5094217;28;20386;-69
2023/09/17 04:59:42;;;;;;;49.42;39.28;;;17.40;99.90;;;;;;5094050;28;20429;-69
2023/09/17 05:02:07;;;;;;;45.80;36.10;;;17.40;99.90;;;;;;5094114;28;20023;-69
2023/09/17 05:04:33;;;;;;;47.03;37.35;;;17.40;99.90;;;;;;5094458;28;20028;-69
2023/09/17 05:06:59;;;;;;;55.10;40.75;;;17.40;99.90;;;;;;5093951;28;20024;-69
2023/09/17 05:09:25;;;;;;;47.50;37.67;;;17.40;99.90;;;;;;5094068;28;20082;-69
2023/09/17 05:11:51;;;;;;;50.28;38.17;;;17.40;99.90;;;;;;5094034;28;20016;-69
2023/09/17 05:14:17;;;;;;;48.03;37.10;;;17.40;99.90;;;;;;5094064;28;20028;-69
2023/09/17 05:16:42;;;;;;;44.05;35.42;;;17.50;99.90;;;;;;5094259;28;20024;-69
2023/09/17 05:19:08;;;;;;;46.17;37.67;;;17.50;99.90;;;;;;5093890;28;20024;-69
2023/09/17 05:21:33;;;;;;;49.58;37.25;;;17.50;99.90;;;;;;5093970;28;20101;-69
2023/09/17 05:23:59;;;;;;;45.30;36.03;;;17.50;99.90;;;;;;5093641;28;20354;-69
2023/09/17 05:26:25;;;;;;;43.83;36.28;;;17.50;99.90;;;;;;5092957;28;20176;-70
2023/09/17 05:28:51;;;;;;;49.83;37.80;;;17.60;99.90;;;;;;5093584;28;20032;-70
2023/09/17 05:31:16;;;;;;;47.45;37.67;;;17.50;99.90;;;;;;5093868;28;20050;-69
2023/09/17 05:33:42;;;;;;;48.25;37.50;;;17.50;99.90;;;;;;5093778;28;20373;-69
2023/09/17 05:36:07;;;;;;;46.10;36.85;;;17.60;99.90;;;;;;5094190;28;20119;-69
2023/09/17 05:38:33;;;;;;;43.40;34.85;;;17.60;99.90;;;;;;5093918;28;20103;-69
2023/09/17 05:40:58;;;;;;;50.45;39.08;;;17.70;99.90;;;;;;5094073;28;20039;-70
2023/09/17 05:43:24;;;;;;;43.88;35.33;;;17.70;99.90;;;;;;5094090;28;20373;-69
2023/09/17 05:45:56;;;;;;;48.63;36.55;;;17.70;99.90;;;;;;5093692;28;20469;-69
2023/09/17 05:48:22;;;;;;;43.25;35.92;;;17.70;99.90;;;;;;5093712;28;20023;-69
2023/09/17 05:50:49;;;;;;;48.30;36.92;;;17.70;99.90;;;;;;5093692;28;20024;-70
2023/09/17 05:53:15;;;;;;;47.38;37.47;;;17.70;99.90;;;;;;5093329;28;20051;-70
2023/09/17 05:55:40;;;;;;;50.30;38.88;;;17.80;99.90;;;;;;5093485;28;20028;-70
2023/09/17 05:58:06;;;;;;;45.95;38.05;;;17.80;99.90;;;;;;5093638;28;20036;-70
2023/09/17 06:00:31;;;;;;;49.10;38.63;;;17.90;99.90;;;;;;5093240;28;20027;-70
2023/09/17 06:02:57;;;;;;;45.25;37.65;;;18.00;99.90;;;;;;5093053;28;20462;-70
2023/09/17 06:05:23;;;;;;;47.03;36.00;;;18.00;99.90;;;;;;5093244;28;20503;-70
2023/09/17 06:07:49;;;;;;;44.58;36.08;;;18.00;99.90;;;;;;5093003;28;20048;-70
2023/09/17 06:10:15;;;;;;;46.88;34.33;;;18.00;99.90;;;;;;5092774;28;20054;-70
2023/09/17 06:12:41;;;;;;;47.22;36.05;;;18.10;99.90;;;;;;5094125;28;20020;-70
2023/09/17 06:15:07;;;;;;;42.05;34.30;;;18.10;99.90;;;;;;5097149;28;20047;-76
2023/09/17 06:17:32;;;;;;;42.60;34.63;;;18.10;99.90;;;;;;5097357;28;20024;-70
2023/09/17 06:19:59;;;;;;;44.83;37.30;;;18.20;99.90;;;;;;5096855;28;20373;-69
2023/09/17 06:22:25;;;;;;;43.85;36.67;;;18.20;99.90;;;;;;5096814;28;20073;-70
2023/09/17 06:24:50;;;;;;;44.58;36.83;;;18.20;99.90;;;;;;5095997;28;20020;-71
2023/09/17 06:27:16;;;;;;;49.05;36.83;;;18.20;99.90;;;;;;5097041;28;20024;-69
2023/09/17 06:29:41;;;;;;;48.58;39.10;;;18.30;99.90;;;;;;5097470;28;20041;-70
2023/09/17 06:32:08;;;;;;;41.00;34.25;;;18.40;99.90;;;;;;5097077;28;20355;-69
2023/09/17 06:34:35;;;;;;;43.50;36.42;;;18.50;99.90;;;;;;5096628;28;20466;-70
2023/09/17 06:37:01;;;;;;;44.25;36.58;;;18.70;99.90;;;;;;5096961;28;20031;-71
2023/09/17 06:39:26;;;;;;;43.20;34.70;;;18.80;99.90;;;;;;5096606;28;20162;-70
2023/09/17 06:41:52;;;;;;;38.03;32.95;;;18.90;99.90;;;;;;5096819;28;20484;-71
2023/09/17 06:44:18;;;;;;;41.55;33.70;;;19.00;99.90;;;;;;5096871;28;20051;-70
2023/09/17 06:46:44;;;;;;;37.28;31.23;;;19.20;99.90;;;;;;5096635;28;20103;-70
2023/09/17 06:49:10;;;;;;;35.92;29.77;;;19.30;99.90;;;;;;5096512;28;20052;-70
2023/09/17 06:51:36;;;;;;;32.90;28.23;;;19.50;99.90;;;;;;5095757;28;20028;-70
2023/09/17 06:54:03;;;;;;;34.75;29.58;;;19.90;99.90;;;;;;5097012;28;20036;-70
2023/09/17 06:56:29;;;;;;;29.13;25.02;;;20.30;99.90;;;;;;5096894;28;20118;-70
2023/09/17 06:58:55;;;;;;;25.50;21.27;;;21.40;99.90;;;;;;5096608;28;20085;-72
2023/09/17 07:01:20;;;;;;;21.67;19.40;;;22.50;99.90;;;;;;5096796;28;20462;-72
2023/09/17 07:03:46;;;;;;;22.13;19.75;;;23.10;99.10;;;;;;5096187;28;20032;-70
2023/09/17 07:06:12;;;;;;;20.95;18.73;;;23.00;59.40;;;;;;5095737;28;20086;-70
2023/09/17 07:08:38;;;;;;;21.33;19.13;;;22.80;46.70;;;;;;5096291;28;20378;-70
2023/09/17 07:11:04;;;;;;;22.00;19.33;;;22.40;42.10;;;;;;5096137;28;20424;-70
2023/09/17 07:13:29;;;;;;;23.30;19.00;;;22.20;97.00;;;;;;5095786;28;20046;-71
2023/09/17 07:15:55;;;;;;;24.75;19.52;;;22.40;71.50;;;;;;5096580;28;20028;-71
2023/09/17 07:18:21;;;;;;;23.13;18.33;;;22.60;59.00;;;;;;5096528;28;20032;-71
2023/09/17 07:20:49;;;;;;;20.40;18.30;;;23.10;17.80;;;;;;5096414;28;20484;-70
2023/09/17 07:23:15;;;;;;;20.38;18.25;;;23.10;1.00;;;;;;5095904;28;20020;-70
2023/09/17 07:25:40;;;;;;;20.63;18.42;;;22.90;1.00;;;;;;5095721;28;20052;-70
2023/09/17 07:28:07;;;;;;;21.02;18.63;;;22.80;7.10;;;;;;5095972;28;20103;-70
2023/09/17 07:30:35;;;;;;;20.02;17.13;;;23.00;25.00;;;;;;5095338;28;20027;-70
2023/09/17 07:33:02;;;;;;;19.52;16.55;;;23.50;27.00;;;;;;5094976;28;20024;-71
2023/09/17 07:35:28;;;;;;;19.40;16.73;;;24.10;1.00;;;;;;5095290;28;20039;-70
2023/09/17 07:37:54;;;;;;;17.83;15.43;;;24.10;1.00;;;;;;5095428;28;20119;-70
2023/09/17 07:40:19;;;;;;;21.58;15.63;;;24.20;1.00;;;;;;5095629;28;20161;-70
2023/09/17 07:42:45;;;;;;;20.65;15.40;;;23.90;1.00;;;;;;5095673;28;20071;-70
2023/09/17 07:45:12;;;;;;;17.65;15.90;;;23.60;1.00;;;;;;5095494;28;20055;-71
2023/09/17 07:47:38;;;;;;;15.60;14.00;;;23.70;1.00;;;;;;5095067;28;20428;-70
2023/09/17 07:50:04;;;;;;;15.30;13.68;;;23.90;1.00;;;;;;5095810;28;20020;-70
2023/09/17 07:52:30;;;;;;;15.90;13.82;;;24.00;1.00;;;;;;5095739;28;20476;-70
2023/09/17 07:54:55;;;;;;;15.13;13.43;;;24.20;1.00;;;;;;5094860;28;20028;-70
2023/09/17 07:57:21;;;;;;;15.25;13.60;;;24.40;1.00;;;;;;5094771;28;20024;-71
2023/09/17 07:59:48;;;;;;;14.18;12.02;;;25.00;1.00;;;;;;5095107;28;20067;-70
2023/09/17 08:02:13;;;;;;;13.60;12.18;;;25.80;99.90;;;;;;5095103;28;20035;-70
2023/09/17 08:04:39;;;;;;;14.35;12.63;;;25.80;10.60;;;;;;5094906;28;20020;-71
2023/09/17 08:07:04;;;;;;;19.08;13.18;;;25.50;58.10;;;;;;5095225;28;20431;-70
2023/09/17 08:09:30;;;;;;;13.75;12.40;;;25.20;99.90;;;;;;5095455;28;20145;-71
2023/09/17 08:11:56;;;;;;;14.25;12.85;;;25.40;99.90;;;;;;5095070;28;20028;-70
2023/09/17 08:14:22;;;;;;;12.45;11.25;;;25.20;99.90;;;;;;5095071;28;20382;-70
2023/09/17 08:16:49;;;;;;;12.50;11.20;;;25.70;99.90;;;;;;5095133;28;20063;-70
2023/09/17 08:19:15;;;;;;;11.93;10.50;;;26.70;1.00;;;;;;5094096;28;20111;-71
2023/09/17 08:21:40;;;;;;;10.15;9.15;;;27.60;86.50;;;;;;5094589;28;20115;-71
2023/09/17 08:24:07;;;;;;;10.30;9.18;;;;;;;;;;5094868;28;20027;-71
2023/09/17 08:26:32;;;;;;;11.95;8.68;;;29.30;1.00;;;;;;5094134;28;20117;-71
2023/09/17 08:29:00;;;;;;;9.43;7.45;;;29.20;99.90;;;;;;5094431;28;20024;-71
2023/09/17 08:31:26;;;;;;;8.85;7.95;;;29.40;1.00;;;;;;5094659;28;20016;-76
2023/09/17 08:33:53;;;;;;;7.53;6.82;;;29.20;99.90;;;;;;5094961;28;20115;-71
2023/09/17 08:36:21;;;;;;;8.27;6.20;;;29.60;99.90;;;;;;5094139;28;20028;-71
2023/09/17 08:38:49;;;;;;;6.72;5.85;;;29.80;99.90;;;;;;5094300;28;20070;-71
2023/09/17 08:41:18;;;;;;;7.25;5.63;;;28.90;99.90;;;;;;5094901;28;20470;-72
2023/09/17 08:43:45;;;;;;;6.03;5.50;;;29.00;1.00;;;;;;5094865;28;20024;-72
2023/09/17 08:46:11;;;;;;;8.15;5.78;;;28.70;1.00;;;;;;5094161;28;20059;-72
2023/09/17 08:48:37;;;;;;;6.43;5.85;;;28.50;99.90;;;;;;5094780;28;20039;-71
2023/09/17 08:51:04;;;;;;;6.82;6.07;;;27.90;99.90;;;;;;5094563;28;20024;-71
2023/09/17 08:53:35;;;;;;;6.57;5.97;;;27.80;99.90;;;;;;5094062;28;20027;-71
2023/09/17 08:56:01;;;;;;;7.15;6.53;;;27.80;1.00;;;;;;5093448;28;20024;-71
2023/09/17 08:58:34;;;;;;;7.07;6.38;;;27.20;99.90;;;;;;5094035;28;20028;-71
2023/09/17 09:01:03;;;;;;;7.85;6.93;;;27.20;99.90;;;;;;5093970;28;20470;-72
2023/09/17 09:03:33;;;;;;;8.30;7.28;;;27.90;99.90;;;;;;5093674;28;20032;-72
2023/09/17 09:06:00;;;;;;;8.52;7.22;;;28.20;94.30;;;;;;5094084;28;20036;-72
2023/09/17 09:08:25;;;;;;;6.72;5.88;;;28.70;99.90;;;;;;5093687;28;20032;-71
2023/09/17 09:10:51;;;;;;;7.10;6.40;;;29.20;1.00;;;;;;5093241;28;20027;-72
2023/09/17 09:13:18;;;;;;;7.20;6.43;;;;;;;;;;5094055;28;20119;-72
2023/09/17 09:15:44;;;;;;;6.40;5.85;;;30.30;1.00;;;;;;5094167;28;20090;-72
2023/09/17 09:18:10;;;;;;;9.75;6.72;;;30.80;99.90;;;;;;5094051;28;20104;-72
2023/09/17 09:20:37;;;;;;;6.68;6.13;;;30.80;99.90;;;;;;5094021;28;20419;-72
2023/09/17 09:23:05;;;;;;;6.00;5.40;;;30.30;99.90;;;;;;5093460;28;20036;-72
2023/09/17 09:25:31;;;;;;;6.03;5.47;;;29.60;53.70;;;;;;5093740;28;20048;-72
2023/09/17 09:28:00;;;;;;;5.80;4.82;;;30.20;1.00;;;;;;5093919;28;20485;-77
2023/09/17 09:30:26;;;;;;;4.70;4.30;;;30.50;99.90;;;;;;5094247;28;20024;-72
2023/09/17 09:32:52;;;;;;;4.45;4.05;;;30.90;99.90;;;;;;5093968;28;20153;-72
2023/09/17 09:35:18;;;;;;;4.60;4.20;;;30.10;99.90;;;;;;5092977;28;20492;-72
2023/09/17 09:37:45;;;;;;;4.53;4.13;;;29.50;99.90;;;;;;5093584;28;20016;-72
2023/09/17 09:40:13;;;;;;;4.90;4.05;;;29.60;99.90;;;;;;5093570;28;20024;-72
2023/09/17 09:42:38;;;;;;;4.93;4.43;;;29.60;99.90;;;;;;5094166;28;20112;-72
2023/09/17 09:45:04;;;;;;;4.78;3.75;;;29.50;99.90;;;;;;5093665;28;20048;-72
2023/09/17 09:47:31;;;;;;;6.40;4.25;;;29.60;99.90;;;;;;5095067;28;20424;-72
2023/09/17 09:49:57;;;;;;;4.80;4.22;;;29.90;99.90;;;;;;5097511;28;20065;-72
2023/09/17 09:52:24;;;;;;;5.65;4.13;;;30.10;99.90;;;;;;5097824;28;20020;-72
2023/09/17 09:54:49;;;;;;;4.80;4.40;;;30.90;99.90;;;;;;5097212;28;20031;-73
2023/09/17 09:57:18;;;;;;;4.55;3.90;;;29.80;99.90;;;;;;5097735;28;20028;-72
2023/09/17 09:59:48;;;;;;;5.05;4.50;;;29.70;99.90;;;;;;5097199;28;20035;-73
2023/09/17 10:02:15;;;;;;;6.50;4.40;;;30.00;99.90;;;;;;5098004;28;20030;-72
2023/09/17 10:04:43;;;;;;;5.00;4.50;;;29.20;1.00;;;;;;5097880;28;20047;-72
2023/09/17 10:07:08;;;;;;;5.20;4.70;;;28.80;99.90;;;;;;5097048;28;20039;-72
2023/09/17 10:09:35;;;;;;;5.45;4.07;;;29.10;99.90;;;;;;5097787;28;20462;-72
2023/09/17 10:12:01;;;;;;;5.55;4.47;;;29.30;82.20;;;;;;5097696;28;20031;-72
2023/09/17 10:14:27;;;;;;;8.02;4.07;;;29.60;99.90;;;;;;5097317;28;20024;-72
2023/09/17 10:16:57;;;;;;;5.50;4.30;;;29.40;1.00;;;;;;5097040;28;20028;-72
2023/09/17 10:19:25;;;;;;;4.80;4.30;;;29.60;99.90;;;;;;5097100;28;20553;-77
2023/09/17 10:21:52;;;;;;;4.95;4.50;;;29.30;99.90;;;;;;5096774;28;20036;-72
2023/09/17 10:24:19;;;;;;;4.97;4.00;;;29.90;99.90;;;;;;5096607;28;20028;-73
2023/09/17 10:26:46;;;;;;;6.28;4.60;;;30.00;99.90;;;;;;5096416;28;20036;-72
2023/09/17 10:29:13;;;;;;;5.65;3.78;;;30.20;99.90;;;;;;5096639;28;20124;-72
2023/09/17 10:31:41;;;;;;;6.00;3.67;;;29.90;99.90;;;;;;5097238;28;20032;-72
2023/09/17 10:34:08;;;;;;;4.32;3.47;;;30.20;99.90;;;;;;5097029;28;20493;-72
2023/09/17 10:36:36;;;;;;;5.75;3.50;;;29.80;99.90;;;;;;5097094;28;20077;-72
2023/09/17 10:39:02;;;;;;;5.25;3.60;;;29.70;99.90;;;;;;5097237;28;20051;-72
2023/09/17 10:41:32;;;;;;;4.32;3.38;;;29.50;99.90;;;;;;5096483;28;20125;-72
2023/09/17 10:43:59;;;;;;;3.47;3.05;;;29.70;71.60;;;;;;5096873;28;20119;-72
2023/09/17 10:46:27;;;;;;;3.97;3.55;;;29.70;99.90;;;;;;5096877;28;20020;-72
2023/09/17 10:48:54;;;;;;;3.92;3.28;;;29.60;99.90;;;;;;5096639;28;20028;-72
2023/09/17 10:51:21;;;;;;;3.55;3.20;;;29.30;99.90;;;;;;5096829;28;20107;-73
2023/09/17 10:53:46;;;;;;;4.10;3.28;;;28.90;99.90;;;;;;5096985;28;20032;-72
2023/09/17 10:56:14;;;;;;;5.05;3.22;;;28.70;1.00;;;;;;5096633;28;20028;-72
2023/09/17 10:58:44;;;;;;;3.85;3.30;;;28.80;99.90;;;;;;5095760;28;20036;-72
2023/09/17 11:01:13;;;;;;;3.83;3.40;;;29.00;99.90;;;;;;5096892;28;20122;-72
2023/09/17 11:03:44;;;;;;;3.30;3.00;;;29.00;99.90;;;;;;5096321;28;20550;-72
2023/09/17 11:06:23;;;;;;;3.78;3.17;;;29.10;99.90;;;;;;5096464;28;20024;-72
2023/09/17 11:08:51;;;;;;;3.28;2.95;;;29.30;99.90;;;;;;5095502;28;20020;-72
2023/09/17 11:11:17;;;;;;;4.47;3.90;;;29.20;1.00;;;;;;5095766;28;20024;-72
2023/09/17 11:13:46;;;;;;;5.88;3.45;;;28.20;1.00;;;;;;5096273;28;20020;-72
2023/09/17 11:16:14;;;;;;;4.75;3.63;;;28.20;99.90;;;;;;5096573;28;20028;-72
2023/09/17 11:18:40;;;;;;;4.35;3.45;;;28.20;99.90;;;;;;5096266;28;20077;-73
2023/09/17 11:21:07;;;;;;;5.30;3.47;;;28.20;99.90;;;;;;5095891;28;20073;-72
2023/09/17 11:23:37;;;;;;;4.90;3.45;;;28.30;1.00;;;;;;5095856;28;20024;-72
2023/09/17 11:26:04;;;;;;;4.53;3.40;;;28.00;99.90;;;;;;5095187;28;20131;-71
2023/09/17 11:28:38;;;;;;;4.93;2.90;;;27.70;1.00;;;;;;5095189;28;20020;-71
2023/09/17 11:31:09;;;;;;;3.95;2.95;;;27.90;93.80;;;;;;5095674;28;20028;-71
2023/09/17 11:33:37;;;;;;;4.57;3.50;;;27.90;1.00;;;;;;5095838;28;20373;-71
2023/09/17 11:36:03;;;;;;;4.15;3.58;;;28.20;1.00;;;;;;5096166;28;20071;-72
2023/09/17 11:38:30;;;;;;;5.35;3.40;;;28.10;1.00;;;;;;5095203;28;20076;-72
2023/09/17 11:41:07;;;;;;;4.25;3.28;;;27.80;99.90;;;;;;5094861;28;20031;-71
2023/09/17 11:43:35;;;;;;;4.90;2.72;;;27.90;1.00;;;;;;5095403;28;20038;-72
2023/09/17 11:46:04;;;;;;;4.25;3.20;;;27.70;1.00;;;;;;5095262;28;20063;-72
2023/09/17 11:48:31;;;;;;;8.88;3.20;;;28.10;99.90;;;;;;5095442;28;20028;-72
2023/09/17 11:51:32;;;;;;;3.58;3.08;;;27.70;91.30;;;;;;5095525;28;20028;-71
2023/09/17 11:54:00;;;;;;;5.68;3.35;;;27.60;96.80;;;;;;5094742;28;20097;-71
2023/09/17 11:56:29;;;;;;;3.67;2.92;;;27.80;1.00;;;;;;5095117;28;20081;-72
2023/09/17 11:59:11;;;;;;;5.75;3.22;;;28.10;1.00;;;;;;5095369;28;20424;-71
2023/09/17 12:01:42;;;;;;;4.63;3.00;;;28.20;99.90;;;;;;5095412;28;20039;-71
2023/09/17 12:04:09;;;;;;;4.97;3.20;;;28.10;99.90;;;;;;5095140;28;20024;-71
2023/09/17 12:06:38;;;;;;;4.15;2.92;;;28.10;99.90;;;;;;5095127;28;20077;-71
2023/09/17 12:09:21;;;;;;;5.75;2.90;;;28.10;99.90;;;;;;5094839;28;20542;-71
2023/09/17 12:11:47;;;;;;;4.20;3.00;;;28.00;99.90;;;;;;5094928;28;20081;-72
2023/09/17 12:14:14;;;;;;;4.97;3.17;;;27.80;99.90;;;;;;5095437;28;20406;-72
2023/09/17 12:16:39;;;;;;;6.15;3.35;;;27.60;99.90;;;;;;5095085;28;20020;-71
2023/09/17 12:19:05;;;;;;;6.30;3.58;;;27.60;99.90;;;;;;5094733;28;20081;-72
2023/09/17 12:21:38;;;;;;;3.75;2.80;;;27.60;99.90;;;;;;5095116;28;20094;-71
2023/09/17 12:24:08;;;;;;;3.22;2.80;;;27.40;99.90;;;;;;5094832;28;20034;-71
2023/09/17 12:29:34;;;;;;;3.38;2.88;;;27.80;99.90;;;;;;5094058;28;20120;-72
2023/09/17 12:32:00;;;;;;;4.85;3.10;;;27.80;99.90;;;;;;5094703;28;20020;-72
2023/09/17 12:34:26;;;;;;;4.13;3.00;;;27.70;99.90;;;;;;5094059;28;20028;-71
2023/09/17 12:36:51;;;;;;;3.03;2.72;;;28.00;1.00;;;;;;5094989;28;20028;-71
2023/09/17 12:39:17;;;;;;;3.88;2.97;;;28.10;99.90;;;;;;5094699;28;20415;-71